Time;durP1;ratioP1;P1;durP2;ratioP2;P2;SDS_P1;SDS_P2;PMS_P1;PMS_P2;Temp;Humidity;BMP_temperature;BMP_pressure;BME280_temperature;BME280_humidity;BME280_pressure;Samples;Min_cycle;Max_cycle;Signal;HPM_P1;HPM_P2
2023/01/16 00:00:20;;;;;;;1.60;1.40;;;4.80;92.50;;;;;;4983342;28;20235;-63
2023/01/16 00:02:46;;;;;;;1.73;1.37;;;4.80;92.30;;;;;;5001455;28;20180;-63
2023/01/16 00:05:11;;;;;;;1.47;1.37;;;4.80;92.80;;;;;;5020685;28;21005;-63
2023/01/16 00:07:37;;;;;;;3.13;2.13;;;4.80;92.60;;;;;;4999736;28;20215;-63
2023/01/16 00:10:04;;;;;;;2.40;1.80;;;4.80;92.30;;;;;;4995009;28;20247;-63
2023/01/16 00:12:30;;;;;;;2.03;1.40;;;4.80;92.90;;;;;;5006768;28;20223;-63
2023/01/16 00:14:56;;;;;;;1.87;1.63;;;4.80;91.10;;;;;;4998472;28;20503;-63
2023/01/16 00:17:22;;;;;;;2.10;1.90;;;4.80;91.50;;;;;;4994232;28;20313;-63
2023/01/16 00:19:47;;;;;;;2.43;1.77;;;4.80;92.50;;;;;;5006436;28;20219;-63
2023/01/16 00:22:13;;;;;;;4.53;1.80;;;4.80;92.80;;;;;;4988440;28;20211;-63
2023/01/16 00:24:39;;;;;;;2.80;2.10;;;4.80;91.80;;;;;;5012905;28;20182;-63
2023/01/16 00:27:05;;;;;;;1.57;1.40;;;4.70;91.40;;;;;;4995902;28;20191;-63
2023/01/16 00:29:31;;;;;;;1.73;1.63;;;4.70;92.80;;;;;;4987215;28;20192;-63
2023/01/16 00:31:56;;;;;;;2.07;1.87;;;4.70;92.50;;;;;;5011876;28;20214;-63
2023/01/16 00:34:23;;;;;;;3.20;1.60;;;4.80;93.60;;;;;;5000054;28;20474;-63
2023/01/16 00:36:48;;;;;;;1.50;1.40;;;4.80;93.50;;;;;;4993709;28;20223;-63
2023/01/16 00:39:14;;;;;;;3.33;1.60;;;4.70;91.70;;;;;;4987893;28;20432;-63
2023/01/16 00:41:40;;;;;;;2.07;1.87;;;4.70;93.20;;;;;;5006650;28;20183;-63
2023/01/16 00:44:06;;;;;;;1.93;1.70;;;4.70;93.20;;;;;;5001970;28;20342;-63
2023/01/16 00:46:31;;;;;;;2.03;1.83;;;4.70;94.00;;;;;;4993997;28;20246;-63
2023/01/16 00:48:57;;;;;;;2.23;1.63;;;4.70;93.60;;;;;;4995959;28;20202;-63
2023/01/16 00:51:23;;;;;;;2.73;2.00;;;4.70;93.90;;;;;;5008120;28;20194;-63
2023/01/16 00:53:48;;;;;;;1.90;1.70;;;4.70;94.50;;;;;;4988349;28;20194;-63
2023/01/16 00:56:14;;;;;;;3.07;1.80;;;4.70;94.20;;;;;;5004241;28;20211;-63
2023/01/16 00:58:40;;;;;;;2.90;1.60;;;4.70;94.30;;;;;;5009030;28;20531;-63
2023/01/16 01:01:06;;;;;;;1.47;1.33;;;4.70;94.60;;;;;;4994251;28;20192;-63
2023/01/16 01:03:32;;;;;;;1.90;1.50;;;4.70;94.60;;;;;;4993847;28;20195;-63
2023/01/16 01:05:57;;;;;;;1.93;1.60;;;4.70;94.60;;;;;;5007164;28;20193;-63
2023/01/16 01:08:23;;;;;;;2.47;2.07;;;4.70;95.00;;;;;;5014141;28;20456;-63
2023/01/16 01:10:49;;;;;;;2.10;1.90;;;4.70;94.50;;;;;;5007537;28;20215;-63
2023/01/16 01:13:15;;;;;;;4.10;1.93;;;4.70;94.40;;;;;;4999386;28;20586;-64
2023/01/16 01:15:41;;;;;;;2.53;1.80;;;4.70;94.60;;;;;;5029926;28;20281;-63
2023/01/16 01:18:07;;;;;;;2.60;1.93;;;4.70;94.30;;;;;;4980610;28;20201;-63
2023/01/16 01:20:33;;;;;;;2.00;1.60;;;4.70;94.70;;;;;;5003859;28;20188;-63
2023/01/16 01:22:59;;;;;;;2.80;1.80;;;4.70;94.80;;;;;;4995643;28;20505;-63
2023/01/16 01:25:25;;;;;;;1.50;1.40;;;4.70;94.60;;;;;;4999172;28;20186;-63
2023/01/16 01:27:50;;;;;;;2.00;1.80;;;4.70;94.30;;;;;;4996777;28;20241;-63
2023/01/16 01:30:16;;;;;;;1.40;1.10;;;4.70;94.60;;;;;;5014539;28;20530;-63
2023/01/16 01:32:42;;;;;;;1.00;0.90;;;4.70;93.20;;;;;;5016393;28;20192;-63
2023/01/16 01:35:08;;;;;;;0.97;0.97;;;4.70;90.80;;;;;;5007181;28;20670;-63
2023/01/16 01:37:35;;;;;;;0.40;0.40;;;4.60;92.70;;;;;;5014818;28;20463;-63
2023/01/16 01:40:02;;;;;;;0.70;0.40;;;4.50;89.20;;;;;;5023673;28;20442;-63
2023/01/16 01:42:43;;;;;;;0.40;0.40;;;4.50;89.40;;;;;;5026191;28;20441;-63
2023/01/16 01:45:17;;;;;;;0.40;0.40;;;4.50;88.40;;;;;;5004234;28;20430;-63
2023/01/16 01:47:52;;;;;;;0.67;0.43;;;4.50;91.40;;;;;;5010943;28;20425;-63
2023/01/16 01:50:20;;;;;;;0.40;0.40;;;4.50;91.00;;;;;;5006804;28;20505;-63
2023/01/16 01:52:46;;;;;;;0.83;0.40;;;4.50;90.90;;;;;;5015468;28;20894;-63
2023/01/16 01:55:13;;;;;;;1.43;0.40;;;4.50;91.40;;;;;;5011597;28;20445;-63
2023/01/16 01:57:46;;;;;;;0.40;0.40;;;4.50;91.50;;;;;;5016180;28;20208;-63
2023/01/16 02:00:19;;;;;;;0.40;0.40;;;4.50;92.30;;;;;;5012375;28;20424;-63
2023/01/16 02:02:55;;;;;;;0.77;0.40;;;4.50;92.20;;;;;;5005302;28;20526;-63
2023/01/16 02:05:28;;;;;;;0.50;0.50;;;4.40;92.60;;;;;;5002708;28;20442;-63
2023/01/16 02:07:55;;;;;;;0.80;0.60;;;4.50;93.00;;;;;;5031799;28;20952;-63
2023/01/16 02:10:32;;;;;;;0.40;0.40;;;4.50;92.80;;;;;;4987065;28;20431;-63
2023/01/16 02:13:01;;;;;;;1.23;0.50;;;4.40;92.60;;;;;;5001384;28;20422;-63
2023/01/16 02:15:27;;;;;;;0.63;0.60;;;4.50;93.00;;;;;;5008930;28;20512;-62
2023/01/16 02:21:11;;;;;;;2.10;0.67;;;4.40;93.00;;;;;;4998645;28;20434;-62
2023/01/16 02:24:14;;;;;;;0.50;0.40;;;4.30;93.70;;;;;;5010139;28;20987;-62
2023/01/16 02:27:09;;;;;;;0.67;0.60;;;4.30;93.70;;;;;;5012457;28;20462;-62
2023/01/16 02:30:12;;;;;;;1.00;0.60;;;4.20;93.80;;;;;;5009384;28;20513;-61
2023/01/16 02:33:03;;;;;;;1.27;0.90;;;4.20;94.40;;;;;;5011379;28;20422;-62
2023/01/16 02:35:57;;;;;;;2.00;0.90;;;4.10;94.40;;;;;;5010472;28;20442;-62
2023/01/16 02:38:31;;;;;;;1.10;0.90;;;4.00;94.70;;;;;;5005508;28;20456;-62
2023/01/16 02:41:16;;;;;;;0.97;0.90;;;4.00;94.70;;;;;;5011692;28;20434;-61
2023/01/16 02:44:07;;;;;;;1.23;1.13;;;3.90;94.90;;;;;;5008991;28;20420;-61
